createdAt,value
2023-03-28T00:01:03.141Z,1.25
2023-03-28T00:03:35.780Z,1.55
2023-03-28T00:06:09.930Z,0.82
2023-03-28T00:08:40.647Z,0.73
2023-03-28T00:11:11.999Z,0.60
2023-03-28T00:13:41.585Z,0.60
2023-03-28T00:16:12.913Z,0.45
2023-03-28T00:18:42.982Z,0.50
2023-03-28T00:21:24.023Z,0.40
2023-03-28T00:23:53.578Z,0.50
2023-03-28T00:26:25.056Z,0.70
2023-03-28T00:28:55.002Z,0.70
2023-03-28T00:31:24.006Z,0.60
2023-03-28T00:33:52.345Z,0.65
2023-03-28T00:36:22.975Z,1.05
2023-03-28T00:38:52.596Z,0.52
2023-03-28T00:41:22.046Z,0.70
2023-03-28T00:43:52.357Z,0.55
2023-03-28T00:46:27.419Z,0.50
2023-03-28T00:49:00.800Z,0.80
2023-03-28T00:51:34.089Z,0.35
2023-03-28T00:54:04.606Z,0.50
2023-03-28T00:56:37.042Z,0.43
2023-03-28T00:59:09.100Z,0.68
2023-03-28T01:01:38.638Z,0.70
2023-03-28T01:04:10.344Z,0.75
2023-03-28T01:06:41.718Z,0.50
2023-03-28T01:09:10.650Z,0.60
2023-03-28T01:11:41.758Z,1.13
2023-03-28T01:14:13.241Z,0.75
2023-03-28T01:16:43.252Z,0.80
2023-03-28T01:19:22.110Z,0.52
2023-03-28T01:22:14.161Z,0.68
2023-03-28T01:25:15.730Z,0.57
2023-03-28T01:27:52.224Z,0.68
2023-03-28T01:30:48.514Z,1.02
2023-03-28T01:33:47.209Z,0.93
2023-03-28T01:37:00.096Z,0.57
2023-03-28T01:39:40.708Z,1.52
2023-03-28T01:42:16.217Z,0.63
2023-03-28T01:44:51.782Z,1.53
2023-03-28T01:47:26.844Z,0.90
2023-03-28T01:50:03.311Z,0.88
2023-03-28T01:52:40.471Z,0.98
2023-03-28T01:55:17.371Z,0.90
2023-03-28T01:57:52.605Z,0.52
2023-03-28T02:00:26.958Z,0.95
2023-03-28T02:03:01.292Z,1.02
2023-03-28T02:05:33.243Z,0.75
2023-03-28T02:08:03.658Z,1.05
2023-03-28T02:10:34.449Z,0.77
2023-03-28T02:13:08.128Z,1.23
2023-03-28T02:15:36.592Z,1.08
2023-03-28T02:18:09.588Z,0.88
2023-03-28T02:20:39.031Z,1.05
2023-03-28T02:23:12.487Z,1.05
2023-03-28T02:25:42.895Z,1.65
2023-03-28T02:28:13.752Z,1.70
2023-03-28T02:30:42.182Z,1.38
2023-03-28T02:33:33.434Z,0.85
2023-03-28T02:36:14.110Z,2.05
2023-03-28T02:38:49.422Z,1.23
2023-03-28T02:41:30.585Z,1.75
2023-03-28T02:44:20.782Z,1.80
2023-03-28T02:46:56.735Z,0.68
2023-03-28T02:49:56.872Z,1.42
2023-03-28T02:52:36.985Z,1.85
2023-03-28T02:55:17.614Z,1.15
2023-03-28T02:57:52.812Z,1.48
2023-03-28T03:00:21.817Z,1.60
2023-03-28T03:02:51.887Z,1.95
2023-03-28T03:05:21.491Z,1.38
2023-03-28T03:07:50.332Z,1.73
2023-03-28T03:10:19.785Z,1.40
2023-03-28T03:12:49.770Z,1.17
2023-03-28T03:15:18.026Z,1.48
2023-03-28T03:17:47.353Z,1.90
2023-03-28T03:20:15.495Z,1.17
2023-03-28T03:22:43.869Z,1.17
2023-03-28T03:25:14.623Z,1.08
2023-03-28T03:27:43.172Z,0.80
2023-03-28T03:30:13.965Z,0.82
2023-03-28T03:32:44.373Z,1.02
2023-03-28T03:35:12.873Z,1.20
2023-03-28T03:37:41.734Z,1.25
2023-03-28T03:40:10.962Z,0.93
2023-03-28T03:42:39.365Z,1.35
2023-03-28T03:45:09.701Z,1.48
2023-03-28T03:47:39.552Z,1.33
2023-03-28T03:50:09.425Z,1.55
2023-03-28T03:52:38.324Z,1.40
2023-03-28T03:55:07.650Z,1.17
2023-03-28T03:57:35.909Z,0.82
2023-03-28T04:00:12.151Z,0.88
2023-03-28T04:02:41.823Z,1.45
2023-03-28T04:05:10.558Z,0.90
2023-03-28T04:07:38.993Z,1.50
2023-03-28T04:10:08.344Z,1.40
2023-03-28T04:12:36.714Z,0.93
2023-03-28T04:15:05.440Z,1.80
2023-03-28T04:17:34.804Z,1.50
2023-03-28T04:20:11.500Z,1.02
2023-03-28T04:22:45.276Z,1.35
2023-03-28T04:25:14.866Z,1.27
2023-03-28T04:27:47.381Z,1.90
2023-03-28T04:30:17.741Z,1.73
2023-03-28T04:32:49.879Z,1.30
2023-03-28T04:35:19.796Z,1.08
2023-03-28T04:37:49.656Z,1.42
2023-03-28T04:40:17.991Z,1.35
2023-03-28T04:42:47.192Z,1.27
2023-03-28T04:45:17.687Z,1.02
2023-03-28T04:47:46.323Z,1.25
2023-03-28T04:50:14.565Z,1.40
2023-03-28T04:52:44.061Z,1.25
2023-03-28T04:55:12.516Z,1.63
2023-03-28T04:57:40.707Z,1.50
2023-03-28T05:00:10.720Z,1.42
2023-03-28T05:02:39.238Z,1.50
2023-03-28T05:05:08.059Z,1.23
2023-03-28T05:07:37.082Z,1.23
2023-03-28T05:10:07.594Z,1.47
2023-03-28T05:12:36.277Z,1.38
2023-03-28T05:15:04.636Z,1.70
2023-03-28T05:17:33.073Z,1.40
2023-03-28T05:20:01.223Z,1.50
2023-03-28T05:22:29.598Z,1.70
2023-03-28T05:24:57.668Z,1.38
2023-03-28T05:27:27.239Z,1.50
2023-03-28T05:29:55.914Z,0.63
2023-03-28T05:32:25.759Z,1.42
2023-03-28T05:34:55.152Z,1.65
2023-03-28T05:37:23.262Z,1.70
2023-03-28T05:39:56.733Z,1.33
2023-03-28T05:42:26.549Z,2.40
2023-03-28T05:44:54.614Z,1.20
2023-03-28T05:47:22.708Z,1.35
2023-03-28T05:49:52.561Z,1.83
2023-03-28T05:52:22.916Z,1.92
2023-03-28T05:54:51.562Z,1.45
2023-03-28T05:57:21.324Z,1.48
2023-03-28T05:59:51.563Z,1.63
2023-03-28T06:02:21.674Z,2.13
2023-03-28T06:04:50.250Z,2.55
2023-03-28T06:07:23.094Z,1.50
2023-03-28T06:09:58.259Z,1.77
2023-03-28T06:12:26.514Z,2.00
2023-03-28T06:14:57.426Z,2.40
2023-03-28T06:17:26.171Z,2.78
2023-03-28T06:19:54.706Z,1.50
2023-03-28T06:22:22.814Z,2.05
2023-03-28T06:24:50.911Z,1.48
2023-03-28T06:27:19.455Z,2.65
2023-03-28T06:29:47.619Z,1.90
2023-03-28T06:32:18.626Z,1.85
2023-03-28T06:34:46.878Z,2.40
2023-03-28T06:37:15.056Z,1.90
2023-03-28T06:39:43.197Z,1.85
2023-03-28T06:42:11.533Z,1.60
2023-03-28T06:44:39.607Z,1.98
2023-03-28T06:47:07.705Z,1.73
2023-03-28T06:49:37.552Z,1.95
2023-03-28T06:52:06.219Z,1.67
2023-03-28T06:54:34.608Z,1.85
2023-03-28T06:57:03.143Z,1.70
2023-03-28T06:59:31.355Z,1.70
2023-03-28T07:01:59.533Z,1.77
2023-03-28T07:04:27.651Z,1.75
2023-03-28T07:06:57.484Z,1.88
2023-03-28T07:09:25.595Z,1.95
2023-03-28T07:11:53.774Z,1.80
2023-03-28T07:14:21.900Z,2.40
2023-03-28T07:16:50.079Z,1.65
2023-03-28T07:19:18.234Z,1.75
2023-03-28T07:21:46.334Z,1.75
2023-03-28T07:24:16.495Z,2.60
2023-03-28T07:26:44.580Z,3.05
2023-03-28T07:29:13.100Z,2.55
2023-03-28T07:31:41.421Z,2.20
2023-03-28T07:34:09.681Z,1.45
2023-03-28T07:36:38.422Z,2.00
2023-03-28T07:39:07.078Z,1.60
2023-03-28T07:41:36.563Z,1.50
2023-03-28T07:44:05.009Z,1.55
2023-03-28T07:46:33.324Z,1.40
2023-03-28T07:49:01.560Z,1.02
2023-03-28T07:51:30.113Z,1.52
2023-03-28T07:53:58.332Z,1.83
2023-03-28T07:56:26.927Z,2.50
2023-03-28T07:58:56.393Z,1.58
2023-03-28T08:01:25.312Z,1.45
2023-03-28T08:03:53.495Z,1.77
2023-03-28T08:06:31.795Z,2.10
2023-03-28T08:09:00.965Z,1.67
2023-03-28T08:11:29.196Z,1.67
2023-03-28T08:13:59.171Z,1.60
2023-03-28T08:16:27.827Z,1.42
2023-03-28T08:19:09.436Z,2.13
2023-03-28T08:21:39.302Z,1.77
2023-03-28T08:24:12.057Z,1.83
2023-03-28T08:26:44.058Z,1.50
2023-03-28T08:29:14.448Z,2.15
2023-03-28T08:31:42.686Z,2.38
2023-03-28T08:34:11.212Z,1.48
2023-03-28T08:36:39.308Z,1.15
2023-03-28T08:39:07.833Z,1.73
2023-03-28T08:41:48.521Z,1.90
2023-03-28T08:44:39.905Z,2.10
2023-03-28T08:47:15.715Z,1.73
2023-03-28T08:49:47.134Z,1.90
2023-03-28T08:52:19.703Z,1.65
2023-03-28T08:54:50.840Z,1.20
2023-03-28T08:57:22.434Z,1.33
2023-03-28T08:59:57.230Z,1.25
2023-03-28T09:02:29.737Z,1.75
2023-03-28T09:05:11.986Z,1.23
2023-03-28T09:07:49.203Z,0.98
2023-03-28T09:10:26.601Z,1.10
2023-03-28T09:13:08.220Z,1.38
2023-03-28T09:15:47.209Z,1.73
2023-03-28T09:18:32.684Z,1.45
2023-03-28T09:21:09.423Z,1.20
2023-03-28T09:24:04.189Z,1.00
2023-03-28T09:26:36.264Z,1.00
2023-03-28T09:29:07.032Z,0.95
2023-03-28T09:31:41.685Z,1.30
2023-03-28T09:34:17.969Z,1.70
2023-03-28T09:36:49.624Z,1.38
2023-03-28T09:39:27.716Z,1.13
2023-03-28T09:42:01.093Z,1.17
2023-03-28T09:44:43.661Z,1.10
2023-03-28T09:47:21.096Z,1.10
2023-03-28T09:49:54.373Z,1.00
2023-03-28T09:52:27.644Z,0.93
2023-03-28T09:54:56.005Z,1.10
2023-03-28T09:57:24.785Z,0.90
2023-03-28T09:59:53.208Z,0.70
2023-03-28T10:02:32.920Z,1.00
2023-03-28T10:05:02.877Z,1.05
2023-03-28T10:07:42.675Z,1.05
2023-03-28T10:10:20.735Z,1.40
2023-03-28T10:12:50.487Z,1.20
2023-03-28T10:15:36.832Z,1.10
2023-03-28T10:18:07.575Z,0.90
2023-03-28T10:20:38.961Z,0.70
2023-03-28T10:23:07.628Z,1.05
2023-03-28T10:25:39.058Z,1.10
2023-03-28T10:28:09.082Z,1.00
2023-03-28T10:30:38.868Z,1.55
2023-03-28T10:33:24.684Z,0.77
2023-03-28T10:35:58.870Z,1.10
2023-03-28T10:38:31.525Z,1.15
2023-03-28T10:41:06.991Z,0.70
2023-03-28T10:43:39.805Z,0.68
2023-03-28T10:46:16.163Z,0.60
2023-03-28T10:48:50.590Z,1.10
2023-03-28T10:51:22.884Z,0.80
2023-03-28T10:54:17.306Z,0.75
2023-03-28T10:56:52.675Z,0.80
2023-03-28T10:59:48.999Z,1.10
2023-03-28T11:02:40.129Z,0.95
2023-03-28T11:05:26.074Z,0.70
2023-03-28T11:08:01.963Z,0.80
2023-03-28T11:10:40.546Z,0.50
2023-03-28T11:13:22.497Z,0.70
2023-03-28T11:15:59.505Z,1.55
2023-03-28T11:18:53.015Z,1.08
2023-03-28T11:21:30.689Z,0.80
2023-03-28T11:24:16.139Z,0.82
2023-03-28T11:26:59.575Z,1.00
2023-03-28T11:29:43.839Z,0.88
2023-03-28T11:32:19.512Z,1.05
2023-03-28T11:35:01.121Z,0.88
2023-03-28T11:37:37.612Z,0.98
2023-03-28T11:40:16.108Z,0.75
2023-03-28T11:42:49.495Z,1.10
2023-03-28T11:45:34.682Z,0.75
2023-03-28T11:48:14.169Z,1.00
2023-03-28T11:50:50.743Z,1.20
2023-03-28T11:53:25.771Z,0.93
2023-03-28T11:56:01.438Z,0.93
2023-03-28T11:58:34.546Z,0.85
2023-03-28T12:01:08.354Z,0.98
2023-03-28T12:03:43.637Z,0.77
2023-03-28T12:06:18.798Z,1.13
2023-03-28T12:08:56.979Z,0.63
2023-03-28T12:11:30.898Z,0.32
2023-03-28T12:14:11.545Z,1.38
2023-03-28T12:16:45.416Z,0.85
2023-03-28T12:19:18.398Z,1.08
2023-03-28T12:21:51.398Z,0.80
2023-03-28T12:24:26.854Z,1.00
2023-03-28T12:27:07.953Z,0.95
2023-03-28T12:29:42.887Z,1.23
2023-03-28T12:32:27.863Z,0.80
2023-03-28T12:35:03.151Z,0.80
2023-03-28T12:37:36.085Z,0.90
2023-03-28T12:40:20.783Z,0.95
2023-03-28T12:42:51.960Z,1.13
2023-03-28T12:45:24.528Z,1.23
2023-03-28T12:47:55.612Z,0.85
2023-03-28T12:50:30.717Z,0.70
2023-03-28T12:53:00.633Z,0.68
2023-03-28T12:55:48.560Z,1.10
2023-03-28T12:58:26.378Z,1.25
2023-03-28T13:01:06.319Z,1.08
2023-03-28T13:03:47.674Z,1.73
2023-03-28T13:06:25.770Z,0.70
2023-03-28T13:09:23.957Z,1.02
2023-03-28T13:11:59.684Z,0.98
2023-03-28T13:14:37.904Z,0.70
2023-03-28T13:17:22.066Z,0.90
2023-03-28T13:19:55.773Z,1.25
2023-03-28T13:22:33.496Z,1.08
2023-03-28T13:25:29.784Z,1.13
2023-03-28T13:28:01.912Z,0.85
2023-03-28T13:30:31.768Z,0.73
2023-03-28T13:33:04.173Z,0.80
2023-03-28T13:35:43.842Z,0.90
2023-03-28T13:38:34.274Z,1.00
2023-03-28T13:41:06.594Z,1.20
2023-03-28T13:43:45.827Z,1.00
2023-03-28T13:46:17.519Z,0.93
2023-03-28T13:48:54.435Z,1.00
2023-03-28T13:51:24.778Z,0.90
2023-03-28T13:53:52.979Z,1.10
2023-03-28T13:56:25.071Z,1.08
2023-03-28T13:58:56.424Z,1.17
2023-03-28T14:01:27.257Z,0.82
2023-03-28T14:03:56.652Z,1.10
2023-03-28T14:06:26.283Z,1.10
2023-03-28T14:08:57.635Z,1.10
2023-03-28T14:11:30.474Z,1.10
2023-03-28T14:14:08.867Z,0.80
2023-03-28T14:16:38.586Z,1.27
2023-03-28T14:19:08.625Z,0.75
2023-03-28T14:21:37.292Z,1.08
2023-03-28T14:24:07.776Z,1.95
2023-03-28T14:26:37.994Z,1.20
2023-03-28T14:29:12.001Z,1.13
2023-03-28T14:31:46.378Z,1.00
2023-03-28T14:34:24.417Z,1.02
2023-03-28T14:36:59.664Z,1.02
2023-03-28T14:39:30.118Z,0.75
2023-03-28T14:42:01.021Z,0.80
2023-03-28T14:44:31.939Z,1.33
2023-03-28T14:47:01.446Z,0.70
2023-03-28T14:49:29.926Z,0.88
2023-03-28T14:52:00.072Z,1.05
2023-03-28T14:54:32.895Z,1.15
2023-03-28T14:57:01.972Z,1.08
2023-03-28T14:59:38.378Z,0.95
2023-03-28T15:02:07.542Z,1.05
2023-03-28T15:04:36.834Z,1.20
2023-03-28T15:07:09.006Z,1.15
2023-03-28T15:09:37.203Z,1.20
2023-03-28T15:12:09.189Z,0.85
2023-03-28T15:14:42.675Z,1.00
2023-03-28T15:17:19.008Z,0.65
2023-03-28T15:19:51.273Z,1.25
2023-03-28T15:22:25.670Z,0.90
2023-03-28T15:24:54.260Z,1.10
2023-03-28T15:27:27.319Z,1.20
2023-03-28T15:29:57.099Z,1.10
2023-03-28T15:32:27.722Z,1.00
2023-03-28T15:35:00.740Z,1.20
2023-03-28T15:37:29.716Z,1.13
2023-03-28T15:40:22.595Z,1.38
2023-03-28T15:42:52.356Z,0.95
2023-03-28T15:45:37.647Z,0.90
2023-03-28T15:48:06.782Z,1.05
2023-03-28T15:50:38.601Z,1.33
2023-03-28T15:53:09.461Z,1.30
2023-03-28T15:55:37.640Z,1.05
2023-03-28T15:58:07.484Z,1.17
2023-03-28T16:00:45.757Z,0.68
2023-03-28T16:03:26.240Z,1.15
2023-03-28T16:06:04.602Z,0.68
2023-03-28T16:08:42.360Z,0.73
2023-03-28T16:11:15.687Z,1.00
2023-03-28T16:13:44.520Z,1.00
2023-03-28T16:16:20.812Z,0.75
2023-03-28T16:18:49.356Z,1.10
2023-03-28T16:21:19.313Z,0.80
2023-03-28T16:23:47.819Z,0.82
2023-03-28T16:26:16.732Z,0.73
2023-03-28T16:28:44.851Z,0.90
2023-03-28T16:31:16.493Z,1.10
2023-03-28T16:33:44.907Z,1.10
2023-03-28T16:36:14.054Z,1.20
2023-03-28T16:38:42.162Z,1.40
2023-03-28T16:41:10.464Z,0.88
2023-03-28T16:43:39.290Z,0.90
2023-03-28T16:48:37.963Z,1.02
2023-03-28T16:51:07.070Z,1.10
2023-03-28T16:53:36.215Z,0.90
2023-03-28T16:56:05.762Z,0.80
2023-03-28T16:58:33.864Z,0.65
2023-03-28T17:01:05.881Z,0.90
2023-03-28T17:03:34.224Z,1.05
2023-03-28T17:06:09.182Z,0.80
2023-03-28T17:08:37.603Z,0.90
2023-03-28T17:11:08.847Z,0.80
2023-03-28T17:13:37.646Z,1.08
2023-03-28T17:16:07.804Z,1.10
2023-03-28T17:18:35.991Z,0.90
2023-03-28T17:21:07.923Z,0.82
2023-03-28T17:23:37.562Z,0.88
2023-03-28T17:26:08.390Z,1.45
2023-03-28T17:28:40.031Z,0.75
2023-03-28T17:31:08.914Z,0.90
2023-03-28T17:33:37.411Z,0.80
2023-03-28T17:36:19.609Z,1.30
2023-03-28T17:38:49.953Z,0.90
2023-03-28T17:41:18.146Z,1.15
2023-03-28T17:43:47.021Z,0.85
2023-03-28T17:46:15.199Z,0.77
2023-03-28T17:48:43.984Z,1.20
2023-03-28T17:51:12.895Z,0.95
2023-03-28T17:53:44.646Z,1.25
2023-03-28T17:56:13.397Z,1.10
2023-03-28T17:58:42.711Z,1.10
2023-03-28T18:01:12.060Z,0.80
2023-03-28T18:03:40.407Z,0.95
2023-03-28T18:06:09.612Z,1.35
2023-03-28T18:08:38.118Z,2.05
2023-03-28T18:11:10.205Z,1.90
2023-03-28T18:13:39.672Z,2.13
2023-03-28T18:16:10.823Z,2.38
2023-03-28T18:18:40.118Z,2.97
2023-03-28T18:21:11.419Z,2.88
2023-03-28T18:23:39.913Z,2.72
2023-03-28T18:26:09.794Z,2.83
2023-03-28T18:28:38.191Z,2.78
2023-03-28T18:31:11.481Z,3.83
2023-03-28T18:33:40.437Z,3.00
2023-03-28T18:36:09.949Z,2.53
2023-03-28T18:38:39.575Z,2.10
2023-03-28T18:41:10.315Z,2.05
2023-03-28T18:43:39.479Z,1.65
2023-03-28T18:46:08.655Z,1.65
2023-03-28T18:48:37.045Z,1.33
2023-03-28T18:51:06.556Z,1.30
2023-03-28T18:53:34.838Z,1.70
2023-03-28T18:56:03.440Z,1.65
2023-03-28T18:58:33.456Z,1.83
2023-03-28T19:01:03.436Z,1.83
2023-03-28T19:03:34.746Z,1.42
2023-03-28T19:06:03.873Z,1.60
2023-03-28T19:08:32.572Z,1.90
2023-03-28T19:11:02.203Z,1.50
2023-03-28T19:13:32.572Z,1.30
2023-03-28T19:16:01.418Z,1.58
2023-03-28T19:18:30.050Z,1.33
2023-03-28T19:20:58.925Z,1.33
2023-03-28T19:23:29.178Z,1.48
2023-03-28T19:25:58.024Z,1.45
2023-03-28T19:28:26.273Z,1.65
2023-03-28T19:30:59.778Z,1.33
2023-03-28T19:33:29.256Z,1.50
2023-03-28T19:35:57.503Z,1.25
2023-03-28T19:38:27.587Z,1.60
2023-03-28T19:40:59.203Z,1.67
2023-03-28T19:43:28.075Z,1.60
2023-03-28T19:46:02.908Z,1.55
2023-03-28T19:48:31.491Z,1.50
2023-03-28T19:50:59.595Z,2.38
2023-03-28T19:53:28.343Z,2.13
2023-03-28T19:55:58.759Z,2.30
2023-03-28T19:58:27.675Z,2.30
2023-03-28T20:00:56.980Z,1.77
2023-03-28T20:03:27.256Z,1.60
2023-03-28T20:05:55.348Z,1.73
2023-03-28T20:08:23.786Z,2.58
2023-03-28T20:10:53.657Z,2.50
2023-03-28T20:13:22.075Z,2.58
2023-03-28T20:15:50.256Z,2.30
2023-03-28T20:18:20.717Z,3.30
2023-03-28T20:20:54.603Z,2.30
2023-03-28T20:23:23.957Z,2.08
2023-03-28T20:25:53.379Z,1.95
2023-03-28T20:28:25.272Z,2.28
2023-03-28T20:30:54.435Z,1.90
2023-03-28T20:33:23.099Z,2.22
2023-03-28T20:35:57.541Z,1.60
2023-03-28T20:38:26.163Z,1.50
2023-03-28T20:40:54.292Z,1.40
2023-03-28T20:43:26.830Z,1.33
2023-03-28T20:45:57.030Z,1.30
2023-03-28T20:48:34.443Z,1.17
2023-03-28T20:51:05.743Z,1.20
2023-03-28T20:53:35.093Z,1.95
2023-03-28T20:56:05.218Z,1.55
2023-03-28T20:58:34.104Z,1.52
2023-03-28T21:01:03.974Z,1.55
2023-03-28T21:03:47.129Z,1.70
2023-03-28T21:06:18.023Z,1.33
2023-03-28T21:08:47.590Z,0.90
2023-03-28T21:11:17.537Z,1.13
2023-03-28T21:13:46.194Z,1.08
2023-03-28T21:16:15.925Z,1.00
2023-03-28T21:18:44.926Z,1.23
2023-03-28T21:21:14.661Z,1.15
2023-03-28T21:23:45.876Z,1.38
2023-03-28T21:26:16.290Z,1.20
2023-03-28T21:28:45.439Z,1.52
2023-03-28T21:31:15.457Z,1.35
2023-03-28T21:33:44.404Z,1.35
2023-03-28T21:36:16.198Z,2.03
2023-03-28T21:38:46.580Z,1.33
2023-03-28T21:41:15.959Z,1.33
2023-03-28T21:43:44.132Z,1.33
2023-03-28T21:46:13.609Z,1.52
2023-03-28T21:48:42.149Z,0.95
2023-03-28T21:51:10.864Z,1.85
2023-03-28T21:53:39.687Z,1.08
2023-03-28T21:56:11.902Z,1.45
2023-03-28T21:58:40.776Z,1.40
2023-03-28T22:01:09.084Z,1.30
2023-03-28T22:03:38.806Z,1.40
2023-03-28T22:06:07.878Z,1.67
2023-03-28T22:08:36.385Z,1.40
2023-03-28T22:11:14.541Z,1.30
2023-03-28T22:13:44.896Z,1.50
2023-03-28T22:16:14.539Z,1.73
2023-03-28T22:18:50.101Z,1.75
2023-03-28T22:21:18.635Z,1.05
2023-03-28T22:23:47.785Z,1.35
2023-03-28T22:26:17.951Z,1.58
2023-03-28T22:28:46.190Z,1.40
2023-03-28T22:31:17.164Z,1.50
2023-03-28T22:33:45.386Z,1.20
2023-03-28T22:36:13.862Z,1.30
2023-03-28T22:38:42.286Z,1.40
2023-03-28T22:41:11.130Z,1.27
2023-03-28T22:43:42.921Z,1.23
2023-03-28T22:46:16.251Z,1.20
2023-03-28T22:48:45.062Z,1.00
2023-03-28T22:51:14.261Z,1.48
2023-03-28T22:53:42.523Z,1.33
2023-03-28T22:56:12.379Z,1.40
2023-03-28T22:58:42.262Z,1.30
2023-03-28T23:01:10.862Z,1.10
2023-03-28T23:03:39.396Z,1.35
2023-03-28T23:06:08.544Z,1.35
2023-03-28T23:08:37.446Z,0.90
2023-03-28T23:11:06.089Z,1.48
2023-03-28T23:13:34.594Z,1.25
2023-03-28T23:16:04.107Z,1.50
2023-03-28T23:18:32.772Z,1.40
2023-03-28T23:21:01.041Z,1.30
2023-03-28T23:23:29.858Z,1.27
2023-03-28T23:25:57.939Z,1.42
2023-03-28T23:28:26.351Z,1.48
2023-03-28T23:30:54.544Z,1.33
2023-03-28T23:33:24.048Z,1.50
2023-03-28T23:35:52.142Z,1.27
2023-03-28T23:38:20.628Z,1.67
2023-03-28T23:40:48.840Z,1.20
2023-03-28T23:43:17.079Z,1.23
2023-03-28T23:45:45.271Z,1.30
2023-03-28T23:48:13.422Z,1.30
2023-03-28T23:50:43.119Z,1.10
2023-03-28T23:53:11.641Z,1.48
2023-03-28T23:55:40.603Z,1.55
2023-03-28T23:58:09.131Z,1.48
